Time;durP1;ratioP1;P1;durP2;ratioP2;P2;SDS_P1;SDS_P2;PMS_P1;PMS_P2;Temp;Humidity;BMP_temperature;BMP_pressure;BME280_temperature;BME280_humidity;BME280_pressure;Samples;Min_cycle;Max_cycle;Signal;HPM_P1;HPM_P2
2022/03/18 00:00:54;;;;;;;7.90;4.90;;;;;;;;;;4971227;28;20057;-68
2022/03/18 00:03:20;;;;;;;9.30;4.40;;;3.10;99.90;;;;;;4971020;28;20382;-68
2022/03/18 00:05:46;;;;;;;11.27;4.73;;;3.10;99.90;;;;;;4970426;28;20030;-68
2022/03/18 00:08:12;;;;;;;12.67;5.10;;;3.10;99.90;;;;;;4971677;28;20035;-68
2022/03/18 00:10:38;;;;;;;8.60;5.60;;;;;;;;;;4971774;28;20047;-68
2022/03/18 00:13:04;;;;;;;6.70;4.53;;;;;;;;;;4971451;28;20049;-68
2022/03/18 00:15:30;;;;;;;12.07;4.97;;;2.80;99.90;;;;;;4971360;28;20452;-68
2022/03/18 00:17:56;;;;;;;12.70;5.73;;;2.80;99.90;;;;;;4969482;28;20041;-68
2022/03/18 00:20:22;;;;;;;11.73;5.43;;;2.90;99.90;;;;;;4965825;28;20039;-68
2022/03/18 00:22:48;;;;;;;11.33;6.77;;;2.90;99.90;;;;;;4971379;28;20035;-68
2022/03/18 00:25:15;;;;;;;10.10;5.43;;;3.00;99.90;;;;;;4970411;28;20027;-68
2022/03/18 00:27:42;;;;;;;11.23;5.90;;;3.00;99.90;;;;;;4971601;28;20514;-69
2022/03/18 00:30:09;;;;;;;11.03;5.70;;;3.10;99.90;;;;;;4970075;28;20034;-68
2022/03/18 00:32:40;;;;;;;12.13;5.00;;;2.90;99.90;;;;;;4971350;28;20089;-68
2022/03/18 00:35:10;;;;;;;12.23;5.33;;;3.00;99.90;;;;;;4965308;28;20448;-68
2022/03/18 00:37:36;;;;;;;9.33;5.00;;;2.90;99.90;;;;;;4971233;28;20050;-68
2022/03/18 00:40:03;;;;;;;10.03;5.57;;;2.90;99.90;;;;;;4970717;28;20576;-69
2022/03/18 00:42:28;;;;;;;10.60;4.57;;;2.90;99.90;;;;;;4967031;28;20118;-68
2022/03/18 00:44:53;;;;;;;9.47;5.60;;;2.90;99.90;;;;;;4970223;28;20114;-68
2022/03/18 00:52:48;;;;;;;12.13;5.40;;;;;;;;;;4970969;28;20490;-68
2022/03/18 00:55:14;;;;;;;15.80;5.57;;;2.80;99.90;;;;;;4971193;28;20102;-68
2022/03/18 00:57:40;;;;;;;16.90;6.00;;;;;;;;;;4969035;28;20022;-68
2022/03/18 01:00:06;;;;;;;12.03;5.93;;;2.90;99.90;;;;;;4970519;28;20023;-68
2022/03/18 01:02:32;;;;;;;13.07;5.33;;;3.00;99.90;;;;;;4970563;28;20035;-68
2022/03/18 01:04:57;;;;;;;11.27;6.23;;;2.90;99.90;;;;;;4960001;28;20094;-68
2022/03/18 01:07:23;;;;;;;10.63;6.17;;;;;;;;;;4964136;28;20522;-68
2022/03/18 01:09:49;;;;;;;13.07;6.47;;;3.30;99.90;;;;;;4971126;28;20047;-68
2022/03/18 01:12:15;;;;;;;11.67;6.00;;;2.80;99.90;;;;;;4969155;28;20049;-68
2022/03/18 01:14:40;;;;;;;9.97;5.30;;;2.80;99.90;;;;;;4970014;28;20093;-69
2022/03/18 01:17:06;;;;;;;9.83;5.53;;;;;;;;;;4970182;28;20066;-69
2022/03/18 01:19:32;;;;;;;13.73;5.57;;;;;;;;;;4971252;28;20041;-68
2022/03/18 01:21:58;;;;;;;11.00;5.67;;;;;;;;;;4967475;28;20473;-69
2022/03/18 01:24:24;;;;;;;10.07;5.20;;;2.50;99.90;;;;;;4968701;28;20034;-68
2022/03/18 01:26:49;;;;;;;11.67;4.90;;;;;;;;;;4970760;28;20080;-69
2022/03/18 01:29:15;;;;;;;12.57;6.27;;;2.50;99.90;;;;;;4971149;28;20125;-68
2022/03/18 01:31:42;;;;;;;12.67;5.43;;;;;;;;;;4970735;28;20158;-68
2022/03/18 01:34:08;;;;;;;11.20;5.10;;;2.40;99.90;;;;;;4964612;28;20042;-68
2022/03/18 01:36:34;;;;;;;10.03;4.57;;;;;;;;;;4964647;28;20121;-68
2022/03/18 01:39:00;;;;;;;10.17;4.90;;;2.30;99.90;;;;;;4963756;28;20113;-68
2022/03/18 01:41:26;;;;;;;9.43;5.97;;;;;;;;;;4970915;28;20086;-68
2022/03/18 01:43:52;;;;;;;13.07;6.07;;;;;;;;;;4970636;28;20459;-68
2022/03/18 01:46:18;;;;;;;12.03;4.93;;;2.10;99.90;;;;;;4970542;28;20484;-68
2022/03/18 01:48:45;;;;;;;10.27;5.70;;;2.30;99.90;;;;;;4970812;28;20034;-68
2022/03/18 01:51:15;;;;;;;11.40;5.63;;;2.20;99.90;;;;;;4970618;28;20031;-68
2022/03/18 01:53:43;;;;;;;8.67;5.27;;;2.30;99.90;;;;;;4970644;28;20476;-69
2022/03/18 01:56:09;;;;;;;10.17;5.77;;;2.40;99.90;;;;;;4970775;28;20037;-68
2022/03/18 01:58:34;;;;;;;13.97;5.57;;;2.20;99.90;;;;;;4958206;28;20035;-68
2022/03/18 02:01:00;;;;;;;12.33;5.57;;;2.20;99.90;;;;;;4969074;28;20041;-68
2022/03/18 02:03:26;;;;;;;10.90;5.07;;;;;;;;;;4974721;28;20027;-68
2022/03/18 02:05:51;;;;;;;9.27;5.30;;;2.10;99.90;;;;;;4974207;28;20106;-68
2022/03/18 02:08:18;;;;;;;8.57;4.93;;;2.10;99.90;;;;;;4974447;28;20448;-68
2022/03/18 02:10:45;;;;;;;10.53;5.20;;;;;;;;;;4973925;28;20129;-69
2022/03/18 02:13:11;;;;;;;10.60;5.20;;;;;;;;;;4973941;28;20484;-68
2022/03/18 02:15:36;;;;;;;11.00;5.60;;;2.10;99.90;;;;;;4973888;28;20022;-68
2022/03/18 02:18:04;;;;;;;9.63;5.07;;;2.50;99.90;;;;;;4974144;28;20121;-68
2022/03/18 02:20:31;;;;;;;13.47;6.70;;;2.10;99.90;;;;;;4973172;28;20471;-68
2022/03/18 02:22:57;;;;;;;9.33;5.40;;;2.20;99.90;;;;;;4968647;28;20428;-68
2022/03/18 02:25:22;;;;;;;12.73;5.00;;;2.10;99.90;;;;;;4955197;29;20035;-68
2022/03/18 02:28:01;;;;;;;12.73;5.43;;;2.10;99.90;;;;;;4953551;29;20046;-66
2022/03/18 02:30:28;;;;;;;10.67;4.77;;;2.00;99.90;;;;;;4954478;29;20051;-68
2022/03/18 02:32:54;;;;;;;11.47;5.27;;;2.10;99.90;;;;;;4954345;29;20047;-68
2022/03/18 02:35:21;;;;;;;9.47;4.43;;;2.20;99.90;;;;;;4954754;29;20536;-68
2022/03/18 02:37:47;;;;;;;8.73;5.27;;;2.30;99.90;;;;;;4958155;28;20038;-68
2022/03/18 02:40:15;;;;;;;9.43;5.37;;;1.70;99.90;;;;;;4973827;28;20036;-68
2022/03/18 02:42:41;;;;;;;8.37;4.53;;;2.20;99.90;;;;;;4972594;28;20118;-68
2022/03/18 02:45:08;;;;;;;10.63;4.80;;;2.00;99.90;;;;;;4971907;28;20480;-68
2022/03/18 02:47:33;;;;;;;10.77;4.77;;;1.90;99.90;;;;;;4973780;28;20435;-68
2022/03/18 02:49:59;;;;;;;10.20;4.50;;;2.00;99.90;;;;;;4973627;28;20101;-68
2022/03/18 02:52:24;;;;;;;7.70;3.83;;;2.00;99.90;;;;;;4971827;28;20030;-68
2022/03/18 02:54:50;;;;;;;10.20;4.70;;;1.90;99.90;;;;;;4954110;29;20035;-68
2022/03/18 02:57:16;;;;;;;9.27;4.53;;;;;;;;;;4954419;29;20432;-68
2022/03/18 02:59:41;;;;;;;10.43;5.50;;;1.90;99.90;;;;;;4953810;29;20027;-69
2022/03/18 03:02:07;;;;;;;10.10;5.27;;;2.00;99.90;;;;;;4953973;29;20023;-68
2022/03/18 03:04:32;;;;;;;9.27;4.77;;;1.80;99.90;;;;;;4954055;29;20034;-68
2022/03/18 03:09:42;;;;;;;7.47;4.15;;;1.80;99.90;;;;;;4958841;28;20057;-68
2022/03/18 03:12:08;;;;;;;9.30;4.17;;;1.70;99.90;;;;;;4972782;28;20536;-69
2022/03/18 03:14:36;;;;;;;11.70;4.60;;;1.80;99.90;;;;;;4971681;28;20441;-68
2022/03/18 03:17:02;;;;;;;10.67;4.40;;;;;;;;;;4973021;28;20018;-68
2022/03/18 03:19:28;;;;;;;9.17;4.93;;;1.60;99.90;;;;;;4967217;28;20059;-68
2022/03/18 03:21:54;;;;;;;13.07;4.70;;;1.60;99.90;;;;;;4953594;29;20101;-67
2022/03/18 03:24:19;;;;;;;6.73;4.10;;;1.70;99.90;;;;;;4954046;29;20469;-66
2022/03/18 03:26:45;;;;;;;7.23;5.03;;;1.70;99.90;;;;;;4953792;29;20039;-66
2022/03/18 03:29:10;;;;;;;5.60;3.77;;;1.50;99.90;;;;;;4964801;28;20053;-67
2022/03/18 03:31:36;;;;;;;8.40;4.07;;;1.60;99.90;;;;;;4972797;28;20031;-68
2022/03/18 03:34:02;;;;;;;7.77;4.40;;;1.70;99.90;;;;;;4972598;28;20125;-66
2022/03/18 03:36:28;;;;;;;9.03;4.37;;;1.40;99.90;;;;;;4972891;28;20102;-66
2022/03/18 03:38:53;;;;;;;13.83;4.70;;;1.50;99.90;;;;;;4972413;28;20109;-66
2022/03/18 03:41:21;;;;;;;10.00;4.17;;;1.70;99.90;;;;;;4972987;28;20023;-66
2022/03/18 03:43:47;;;;;;;11.33;4.17;;;1.50;99.90;;;;;;4963468;28;20035;-66
2022/03/18 03:46:12;;;;;;;14.63;4.87;;;1.50;99.90;;;;;;4951892;29;20035;-66
2022/03/18 03:48:38;;;;;;;7.30;3.70;;;1.60;99.90;;;;;;4953374;29;20035;-66
2022/03/18 03:51:04;;;;;;;10.63;4.10;;;;;;;;;;4952934;28;20053;-66
2022/03/18 03:53:30;;;;;;;11.07;4.83;;;;;;;;;;4972202;28;20079;-66
2022/03/18 03:55:56;;;;;;;7.03;3.57;;;;;;;;;;4971760;28;20035;-66
2022/03/18 03:58:21;;;;;;;11.50;5.20;;;1.40;99.90;;;;;;4971478;28;20388;-66
2022/03/18 04:00:47;;;;;;;14.30;5.83;;;;;;;;;;4970072;28;20105;-66
2022/03/18 04:03:13;;;;;;;8.40;4.40;;;1.40;99.90;;;;;;4965984;28;20051;-66
2022/03/18 04:05:38;;;;;;;6.93;4.97;;;1.30;99.90;;;;;;4952699;29;20495;-66
2022/03/18 04:08:04;;;;;;;11.37;4.63;;;1.30;99.90;;;;;;4952911;29;20035;-66
2022/03/18 04:10:30;;;;;;;10.80;4.77;;;1.30;99.90;;;;;;4953053;29;20054;-66
2022/03/18 04:12:55;;;;;;;8.23;4.50;;;1.30;99.90;;;;;;4952553;29;20035;-66
2022/03/18 04:15:21;;;;;;;10.37;4.83;;;1.40;99.90;;;;;;4952949;29;20094;-66
2022/03/18 04:17:48;;;;;;;10.97;3.73;;;1.30;99.90;;;;;;4957350;28;20511;-66
2022/03/18 04:20:24;;;;;;;7.03;3.97;;;1.50;99.90;;;;;;4972115;28;20069;-67
2022/03/18 04:22:50;;;;;;;5.83;4.43;;;1.40;99.90;;;;;;4951517;28;20504;-66
2022/03/18 04:25:17;;;;;;;8.10;4.00;;;1.30;99.90;;;;;;4952424;28;20082;-66
2022/03/18 04:27:43;;;;;;;8.90;3.63;;;;;;;;;;4952503;29;20078;-66
2022/03/18 04:30:11;;;;;;;10.13;4.37;;;1.10;99.90;;;;;;4952386;29;20035;-66
2022/03/18 04:32:37;;;;;;;7.83;4.60;;;;;;;;;;4952149;29;20035;-66
2022/03/18 04:35:07;;;;;;;8.00;4.80;;;1.30;99.90;;;;;;4952379;29;20080;-66
2022/03/18 04:37:33;;;;;;;11.07;3.83;;;1.70;99.90;;;;;;4952541;29;20037;-66
2022/03/18 04:39:58;;;;;;;7.40;4.33;;;1.20;99.90;;;;;;4952110;28;20121;-66
2022/03/18 04:42:24;;;;;;;6.43;4.00;;;1.10;99.90;;;;;;4952518;29;20070;-66
2022/03/18 04:44:49;;;;;;;8.50;3.97;;;1.20;99.90;;;;;;4951964;29;20122;-66
2022/03/18 04:47:15;;;;;;;11.07;3.90;;;;;;;;;;4952521;29;20074;-66
2022/03/18 04:49:41;;;;;;;6.83;4.37;;;1.10;99.90;;;;;;4952504;29;20385;-66
2022/03/18 04:52:07;;;;;;;10.83;4.90;;;1.00;99.90;;;;;;4952018;28;20023;-66
2022/03/18 04:54:32;;;;;;;6.53;3.67;;;1.10;99.90;;;;;;4951981;29;20031;-66
2022/03/18 04:59:44;;;;;;;;;;;0.80;99.90;;;;;;4952791;29;20456;-66
2022/03/18 05:02:14;;;;;;;7.07;4.23;;;1.00;99.90;;;;;;4952148;28;19906;-66
2022/03/18 05:04:41;;;;;;;10.50;4.00;;;;;;;;;;4952039;29;20022;-66
2022/03/18 05:07:07;;;;;;;6.57;3.90;;;0.70;99.90;;;;;;4957018;28;20023;-66
2022/03/18 05:09:32;;;;;;;10.77;4.07;;;1.10;99.90;;;;;;4970703;28;20460;-66
2022/03/18 05:11:58;;;;;;;8.67;3.53;;;;;;;;;;4971275;28;20396;-66
2022/03/18 05:14:24;;;;;;;10.63;3.93;;;1.10;99.90;;;;;;4971496;28;20035;-66
2022/03/18 05:16:49;;;;;;;10.30;4.07;;;1.00;99.90;;;;;;4971081;28;20365;-66
2022/03/18 05:19:15;;;;;;;8.53;4.50;;;0.80;99.90;;;;;;4971449;28;20392;-66
2022/03/18 05:21:41;;;;;;;9.50;4.03;;;0.80;99.90;;;;;;4969650;28;20026;-66
2022/03/18 05:24:07;;;;;;;8.30;4.50;;;1.00;99.90;;;;;;4951250;29;20107;-66
2022/03/18 05:26:33;;;;;;;9.27;4.40;;;1.00;99.90;;;;;;4970186;28;20463;-66
2022/03/18 05:28:59;;;;;;;7.93;4.60;;;0.80;99.90;;;;;;4971074;28;20026;-68
2022/03/18 05:31:26;;;;;;;12.10;5.47;;;0.80;99.90;;;;;;4971457;28;20058;-67
2022/03/18 05:33:51;;;;;;;8.90;4.67;;;0.80;99.90;;;;;;4972231;28;20510;-66
2022/03/18 05:36:17;;;;;;;8.03;5.20;;;;;;;;;;4975241;28;20058;-66
2022/03/18 05:38:43;;;;;;;6.83;5.13;;;0.60;99.90;;;;;;4956422;28;20046;-66
2022/03/18 05:41:09;;;;;;;8.27;4.90;;;;;;;;;;4955409;29;20042;-66
2022/03/18 05:43:36;;;;;;;13.10;4.63;;;0.60;99.90;;;;;;4955850;29;20507;-66
2022/03/18 05:46:02;;;;;;;8.27;4.93;;;0.90;99.90;;;;;;4955413;29;20023;-66
2022/03/18 05:48:28;;;;;;;12.40;6.30;;;1.20;99.90;;;;;;4955802;29;20494;-66
2022/03/18 05:50:53;;;;;;;11.67;5.50;;;0.60;99.90;;;;;;4955090;29;20027;-66
2022/03/18 05:53:19;;;;;;;10.40;5.43;;;0.80;99.90;;;;;;4969442;28;20101;-66
2022/03/18 05:58:29;;;;;;;11.10;4.70;;;0.80;99.90;;;;;;4974701;28;20058;-66
2022/03/18 06:00:55;;;;;;;7.23;4.90;;;0.90;99.90;;;;;;4974300;28;20051;-66
2022/03/18 06:03:21;;;;;;;9.87;5.23;;;0.90;99.90;;;;;;4974708;28;20027;-66
2022/03/18 06:05:46;;;;;;;13.17;5.60;;;1.00;99.90;;;;;;4974451;28;20106;-66
2022/03/18 06:13:40;;;;;;;6.72;4.47;;;1.10;99.90;;;;;;4955186;29;20528;-66
2022/03/18 06:16:06;;;;;;;8.70;4.97;;;;;;;;;;4954829;29;20062;-69
2022/03/18 06:18:32;;;;;;;9.57;4.43;;;1.10;99.90;;;;;;4955089;29;20031;-67
2022/03/18 06:20:59;;;;;;;8.50;4.90;;;;;;;;;;4954427;29;20477;-67
2022/03/18 06:23:25;;;;;;;12.13;5.37;;;;;;;;;;4969860;28;20472;-66
2022/03/18 06:25:51;;;;;;;10.70;4.90;;;1.10;99.90;;;;;;4973890;28;20090;-67
2022/03/18 06:28:16;;;;;;;9.20;5.57;;;;;;;;;;4974380;28;20081;-67
2022/03/18 06:30:42;;;;;;;11.53;4.90;;;1.60;99.90;;;;;;4974062;28;20030;-66
2022/03/18 06:33:08;;;;;;;18.47;5.63;;;;;;;;;;4973824;28;20360;-67
2022/03/18 06:35:34;;;;;;;12.60;6.10;;;1.60;99.90;;;;;;4973708;28;20034;-67
2022/03/18 06:37:59;;;;;;;15.77;5.13;;;1.40;99.90;;;;;;4973413;28;20069;-66
2022/03/18 06:40:25;;;;;;;10.40;4.93;;;1.60;99.90;;;;;;4973414;28;20090;-66
2022/03/18 06:42:50;;;;;;;11.17;6.00;;;1.60;99.90;;;;;;4973299;28;20038;-66
2022/03/18 06:45:16;;;;;;;9.83;5.43;;;;;;;;;;4972441;28;20030;-67
2022/03/18 06:47:42;;;;;;;11.30;6.53;;;1.80;99.90;;;;;;4967460;28;20031;-67
2022/03/18 06:50:09;;;;;;;11.60;6.20;;;2.10;99.90;;;;;;4971284;28;20491;-66
2022/03/18 06:52:35;;;;;;;11.10;5.53;;;1.90;99.90;;;;;;4973400;28;20034;-66
2022/03/18 06:55:01;;;;;;;13.13;5.63;;;2.00;99.90;;;;;;4973264;28;20370;-67
2022/03/18 06:57:26;;;;;;;16.07;6.00;;;2.10;99.90;;;;;;4972391;28;20393;-67
2022/03/18 06:59:52;;;;;;;10.03;5.87;;;;;;;;;;4956886;28;20046;-67
2022/03/18 07:02:18;;;;;;;14.23;6.57;;;;;;;;;;4965057;28;20201;-67
2022/03/18 07:04:43;;;;;;;8.80;6.00;;;2.40;99.90;;;;;;4968902;28;20217;-68
2022/03/18 07:07:09;;;;;;;12.13;7.23;;;2.60;99.90;;;;;;4968945;28;20077;-69
2022/03/18 07:09:36;;;;;;;12.50;6.57;;;;;;;;;;4972782;28;20054;-66
2022/03/18 07:12:02;;;;;;;13.63;8.83;;;3.00;99.90;;;;;;4972667;28;20050;-68
2022/03/18 07:14:27;;;;;;;16.73;6.43;;;3.00;99.90;;;;;;4972296;28;20491;-69
2022/03/18 07:19:38;;;;;;;15.45;7.82;;;3.20;99.90;;;;;;4972757;28;20408;-69
2022/03/18 07:22:07;;;;;;;11.40;6.80;;;3.40;99.90;;;;;;4971570;28;20098;-71
2022/03/18 07:24:32;;;;;;;16.37;6.97;;;3.50;99.90;;;;;;4962386;28;20035;-69
2022/03/18 07:26:58;;;;;;;11.87;7.27;;;3.60;99.90;;;;;;4984214;28;20034;-69
2022/03/18 07:29:24;;;;;;;15.57;7.43;;;3.60;99.90;;;;;;4992446;28;20033;-67
2022/03/18 07:31:51;;;;;;;12.70;6.27;;;3.90;99.90;;;;;;4992039;28;20391;-68
2022/03/18 07:34:16;;;;;;;9.53;6.17;;;4.00;99.90;;;;;;4992128;28;20034;-67
2022/03/18 07:36:42;;;;;;;9.37;4.53;;;3.90;99.90;;;;;;4992206;28;20026;-68
2022/03/18 07:39:07;;;;;;;13.10;6.40;;;4.10;99.90;;;;;;4991953;28;20442;-69
2022/03/18 07:41:35;;;;;;;10.03;6.40;;;4.30;99.90;;;;;;4989454;28;20030;-68
2022/03/18 07:44:01;;;;;;;12.97;5.40;;;4.40;99.90;;;;;;4972407;28;20035;-68
2022/03/18 07:46:27;;;;;;;15.43;6.47;;;4.40;99.90;;;;;;4972798;28;20027;-68
2022/03/18 07:48:52;;;;;;;9.03;5.60;;;4.80;99.90;;;;;;4971888;28;20042;-68
2022/03/18 07:51:18;;;;;;;18.17;7.40;;;;;;;;;;4971789;28;20066;-68
2022/03/18 07:53:44;;;;;;;14.90;6.67;;;4.80;99.90;;;;;;4971012;28;20085;-68
2022/03/18 07:56:10;;;;;;;17.47;7.60;;;;;;;;;;4970896;28;20062;-68
2022/03/18 07:58:35;;;;;;;13.80;7.80;;;5.00;99.90;;;;;;4971343;28;20035;-68
2022/03/18 08:01:00;;;;;;;14.63;6.97;;;5.00;99.90;;;;;;4970888;28;20034;-68
2022/03/18 08:03:26;;;;;;;13.10;6.77;;;;;;;;;;4970477;28;20377;-68
2022/03/18 08:05:52;;;;;;;12.03;6.20;;;5.50;99.90;;;;;;4969227;28;20037;-68
2022/03/18 08:08:18;;;;;;;12.83;6.50;;;;;;;;;;4970819;28;20381;-68
2022/03/18 08:10:43;;;;;;;15.37;6.43;;;5.70;99.90;;;;;;4970520;28;20475;-68
2022/03/18 08:13:09;;;;;;;14.00;5.80;;;;;;;;;;4970761;28;20034;-68
2022/03/18 08:15:35;;;;;;;11.70;6.30;;;5.70;99.90;;;;;;4971093;28;20034;-68
2022/03/18 08:18:02;;;;;;;14.80;6.70;;;;;;;;;;4971784;28;20472;-68
2022/03/18 08:20:28;;;;;;;11.30;6.70;;;6.10;99.90;;;;;;4967197;28;20027;-68
2022/03/18 08:22:54;;;;;;;13.77;6.33;;;;;;;;;;4953983;28;20043;-68
2022/03/18 08:25:20;;;;;;;8.13;5.20;;;;;;;;;;4970699;28;20089;-67
2022/03/18 08:27:48;;;;;;;26.47;7.70;;;6.40;99.90;;;;;;4952460;28;20043;-68
2022/03/18 08:30:14;;;;;;;9.53;5.33;;;;;;;;;;4951521;29;20051;-69
2022/03/18 08:32:40;;;;;;;11.17;5.23;;;6.40;99.90;;;;;;4962163;28;20504;-68
2022/03/18 08:35:08;;;;;;;9.50;5.70;;;6.60;99.90;;;;;;4968154;28;20042;-69
2022/03/18 08:40:19;;;;;;;19.93;5.90;;;6.80;99.90;;;;;;4970540;28;20085;-69
2022/03/18 08:42:44;;;;;;;9.53;4.87;;;6.90;99.90;;;;;;4970299;28;20038;-69
2022/03/18 08:45:10;;;;;;;11.23;4.37;;;;;;;;;;4970304;28;20033;-68
2022/03/18 08:47:36;;;;;;;11.33;4.57;;;7.10;99.90;;;;;;4969615;28;20039;-69
2022/03/18 08:50:03;;;;;;;9.23;4.93;;;7.10;99.90;;;;;;4971205;28;20123;-68
2022/03/18 08:52:29;;;;;;;8.10;4.37;;;;;;;;;;4971636;28;20089;-68
2022/03/18 08:54:54;;;;;;;10.63;6.33;;;7.40;99.90;;;;;;4969945;28;20031;-68
2022/03/18 08:57:19;;;;;;;12.97;5.60;;;7.70;99.90;;;;;;4971655;28;20026;-68
2022/03/18 08:59:45;;;;;;;6.70;4.30;;;7.60;99.90;;;;;;4968504;28;20770;-69
2022/03/18 09:02:10;;;;;;;6.13;3.70;;;7.90;99.90;;;;;;4950755;29;20106;-68
2022/03/18 09:04:36;;;;;;;8.90;3.83;;;7.70;99.90;;;;;;4951046;29;20119;-69
2022/03/18 09:07:02;;;;;;;11.60;4.73;;;7.50;99.90;;;;;;4951596;29;20025;-68
2022/03/18 09:09:28;;;;;;;5.93;3.47;;;7.70;99.90;;;;;;4950229;28;20055;-68
2022/03/18 09:11:54;;;;;;;11.77;4.77;;;8.10;99.90;;;;;;4951798;29;20111;-68
2022/03/18 09:14:20;;;;;;;5.70;3.60;;;8.30;99.90;;;;;;4950702;29;20046;-69
2022/03/18 09:16:47;;;;;;;9.70;4.03;;;8.40;99.90;;;;;;4969010;28;20030;-67
2022/03/18 09:19:13;;;;;;;7.57;2.90;;;;;;;;;;4970950;28;20110;-68
2022/03/18 09:21:39;;;;;;;12.07;3.97;;;8.20;99.90;;;;;;4971599;28;20031;-68
2022/03/18 09:24:05;;;;;;;8.63;3.67;;;8.40;99.90;;;;;;4970717;28;20022;-68
2022/03/18 09:26:31;;;;;;;11.33;3.57;;;8.20;99.90;;;;;;4971348;28;20066;-68
2022/03/18 09:28:56;;;;;;;7.57;3.87;;;8.70;99.90;;;;;;4970610;28;20061;-68
2022/03/18 09:31:23;;;;;;;6.73;3.27;;;;;;;;;;4954950;28;20078;-68
2022/03/18 09:33:49;;;;;;;8.77;4.07;;;;;;;;;;4951251;29;20488;-68
2022/03/18 09:36:18;;;;;;;13.53;3.57;;;9.10;99.90;;;;;;4951730;29;20034;-68
2022/03/18 09:38:45;;;;;;;6.80;3.30;;;9.00;99.90;;;;;;4951833;29;20473;-68
2022/03/18 09:41:11;;;;;;;6.67;2.30;;;9.00;99.90;;;;;;4951502;28;20118;-69
2022/03/18 09:43:37;;;;;;;5.33;2.57;;;9.20;99.90;;;;;;4951829;29;20150;-68
2022/03/18 09:46:04;;;;;;;4.13;2.10;;;9.20;99.90;;;;;;4950052;29;20531;-68
2022/03/18 09:48:31;;;;;;;5.30;2.37;;;9.40;98.80;;;;;;4969051;28;20503;-68
2022/03/18 09:50:56;;;;;;;4.63;2.10;;;9.40;99.90;;;;;;4969715;28;20058;-68
2022/03/18 09:53:22;;;;;;;3.83;1.80;;;;;;;;;;4970093;28;20376;-69
2022/03/18 09:55:51;;;;;;;7.57;2.10;;;9.70;99.90;;;;;;4970758;28;20476;-68
2022/03/18 09:58:17;;;;;;;8.40;2.37;;;;;;;;;;4967835;28;20045;-68
2022/03/18 10:00:43;;;;;;;6.50;2.33;;;9.80;99.90;;;;;;4971192;28;20110;-68
2022/03/18 10:03:11;;;;;;;5.60;2.63;;;9.90;96.90;;;;;;4975165;28;20102;-68
2022/03/18 10:05:59;;;;;;;4.83;2.03;;;9.90;99.50;;;;;;4987674;28;20069;-68
2022/03/18 10:08:50;;;;;;;5.33;1.63;;;10.00;97.00;;;;;;4973806;28;20030;-69
2022/03/18 10:11:18;;;;;;;5.20;2.30;;;10.20;99.90;;;;;;4967315;28;20051;-69
2022/03/18 10:14:03;;;;;;;6.73;2.27;;;10.20;99.30;;;;;;4970390;28;20054;-69
2022/03/18 10:16:33;;;;;;;4.93;2.20;;;10.40;94.60;;;;;;4970538;28;20027;-69
2022/03/18 10:18:59;;;;;;;8.63;2.53;;;10.50;99.90;;;;;;4970291;28;20110;-69
2022/03/18 10:21:25;;;;;;;8.07;2.73;;;10.60;99.90;;;;;;4972628;28;20090;-69
2022/03/18 10:24:06;;;;;;;11.37;3.10;;;10.80;99.90;;;;;;4973743;28;20019;-69
2022/03/18 10:26:37;;;;;;;9.90;2.83;;;10.50;99.90;;;;;;4974378;28;20027;-68
2022/03/18 10:29:03;;;;;;;6.20;3.13;;;;;;;;;;4972040;28;20038;-69
2022/03/18 10:31:29;;;;;;;5.53;2.50;;;;;;;;;;4968060;28;20373;-69
2022/03/18 10:37:05;;;;;;;6.53;2.40;;;10.90;94.40;;;;;;4954498;29;20077;-68
2022/03/18 10:39:33;;;;;;;4.87;2.73;;;10.90;94.50;;;;;;4954782;29;20436;-68
2022/03/18 10:42:01;;;;;;;12.70;2.83;;;11.20;99.90;;;;;;4953803;29;20027;-68
2022/03/18 10:44:28;;;;;;;5.57;2.20;;;11.20;99.90;;;;;;4955198;28;20039;-71
2022/03/18 10:46:56;;;;;;;7.13;2.40;;;11.30;99.90;;;;;;4972095;28;20469;-68
2022/03/18 10:49:23;;;;;;;8.00;3.00;;;11.10;99.90;;;;;;4973822;28;20181;-68
2022/03/18 10:51:49;;;;;;;6.93;2.77;;;;;;;;;;4973335;28;20019;-68
2022/03/18 10:54:23;;;;;;;6.13;2.67;;;11.20;99.90;;;;;;4973244;28;20049;-68
2022/03/18 10:56:57;;;;;;;7.43;2.65;;;11.10;94.20;;;;;;4953492;29;20039;-68
2022/03/18 10:59:24;;;;;;;5.93;2.40;;;11.40;99.90;;;;;;4954183;29;20476;-69
2022/03/18 11:01:51;;;;;;;8.63;2.77;;;11.50;93.10;;;;;;4954033;29;20026;-68
2022/03/18 11:04:18;;;;;;;6.07;2.13;;;11.70;99.90;;;;;;4955036;28;20481;-68
2022/03/18 11:07:29;;;;;;;10.57;3.43;;;11.20;98.50;;;;;;4961464;28;20031;-68
2022/03/18 11:11:07;;;;;;;6.67;3.20;;;11.60;99.90;;;;;;4970883;28;20194;-68
2022/03/18 11:12:26;;;;;;;7.40;2.73;;;11.80;99.90;;;;;;4972699;28;20037;-69
2022/03/18 11:14:57;;;;;;;6.93;3.07;;;11.70;99.90;;;;;;4972954;28;20042;-67
2022/03/18 11:17:24;;;;;;;5.90;2.73;;;11.70;99.90;;;;;;4971861;28;20029;-68
2022/03/18 11:19:52;;;;;;;4.83;2.60;;;11.60;99.90;;;;;;4971754;28;20031;-67
2022/03/18 11:22:20;;;;;;;13.07;4.20;;;11.80;99.90;;;;;;4972532;28;20027;-67
2022/03/18 11:24:46;;;;;;;9.33;3.77;;;11.80;99.80;;;;;;4970706;28;20050;-68
2022/03/18 11:27:12;;;;;;;7.22;3.03;;;;;;;;;;4952891;29;20031;-67
2022/03/18 11:29:40;;;;;;;6.50;3.30;;;;;;;;;;4953862;29;20059;-67
2022/03/18 11:32:15;;;;;;;9.30;3.57;;;11.80;99.50;;;;;;4952650;28;20023;-67
2022/03/18 11:34:47;;;;;;;4.90;3.33;;;11.70;99.70;;;;;;4953684;29;20047;-68
2022/03/18 11:37:13;;;;;;;6.70;3.20;;;11.80;99.70;;;;;;4962732;28;20019;-67
2022/03/18 11:39:39;;;;;;;7.18;3.80;;;12.00;99.70;;;;;;4960896;28;20098;-67
2022/03/18 11:42:09;;;;;;;9.82;4.28;;;12.00;99.50;;;;;;4980405;28;20015;-67
2022/03/18 11:44:49;;;;;;;9.52;3.72;;;12.20;99.60;;;;;;4971508;28;20027;-67
2022/03/18 11:47:20;;;;;;;9.10;3.88;;;11.70;99.50;;;;;;4971934;28;20027;-68
2022/03/18 11:49:47;;;;;;;8.00;3.83;;;12.10;99.70;;;;;;4981373;28;20021;-67
2022/03/18 11:52:13;;;;;;;6.60;2.83;;;12.10;97.10;;;;;;4970799;28;20033;-67
2022/03/18 11:55:06;;;;;;;6.50;3.78;;;12.00;99.50;;;;;;4971538;28;20043;-68
2022/03/18 11:57:51;;;;;;;10.10;3.85;;;11.90;99.50;;;;;;4963264;28;20031;-68
2022/03/18 12:00:31;;;;;;;10.75;4.22;;;12.10;91.90;;;;;;4971862;28;20030;-67
2022/03/18 12:02:59;;;;;;;7.18;3.47;;;12.30;99.30;;;;;;4971407;28;20031;-67
2022/03/18 12:05:30;;;;;;;7.10;4.25;;;12.30;92.30;;;;;;4968783;28;20539;-67
2022/03/18 12:07:56;;;;;;;11.87;3.70;;;12.30;98.90;;;;;;4971453;28;20484;-67
2022/03/18 12:10:34;;;;;;;10.32;3.72;;;12.50;98.90;;;;;;4971124;28;20769;-68
2022/03/18 12:13:02;;;;;;;15.85;5.55;;;;;;;;;;4972134;28;20085;-68
2022/03/18 12:15:29;;;;;;;10.93;4.90;;;12.40;98.50;;;;;;4953915;28;20038;-68
2022/03/18 12:17:57;;;;;;;6.70;2.88;;;12.30;92.20;;;;;;4952589;29;20050;-67
2022/03/18 12:20:30;;;;;;;10.52;4.07;;;12.50;98.80;;;;;;4952546;28;20499;-68
2022/03/18 12:22:58;;;;;;;9.10;3.88;;;12.60;98.80;;;;;;4961271;28;20023;-68
2022/03/18 12:25:24;;;;;;;7.28;3.58;;;12.50;98.40;;;;;;4971510;28;20443;-68
2022/03/18 12:27:52;;;;;;;6.57;4.03;;;12.50;98.50;;;;;;4962885;28;20031;-68
2022/03/18 12:30:20;;;;;;;6.45;3.35;;;12.50;91.80;;;;;;4952544;29;20114;-68
2022/03/18 12:32:50;;;;;;;5.80;3.22;;;12.70;98.70;;;;;;4958863;28;20026;-68
2022/03/18 12:35:18;;;;;;;6.18;3.33;;;12.60;91.70;;;;;;4970785;28;20037;-68
2022/03/18 12:37:45;;;;;;;9.15;4.10;;;12.70;98.00;;;;;;4971501;28;20015;-68
2022/03/18 12:40:15;;;;;;;10.57;4.28;;;12.80;98.00;;;;;;4970983;28;20026;-68
2022/03/18 12:42:59;;;;;;;8.50;3.90;;;11.90;90.10;;;;;;4970028;28;20045;-68
2022/03/18 12:45:27;;;;;;;9.43;4.88;;;12.90;97.90;;;;;;4970704;28;20381;-68
2022/03/18 12:47:54;;;;;;;6.00;3.67;;;12.80;90.60;;;;;;4971140;28;20511;-68
2022/03/18 12:50:24;;;;;;;7.90;4.28;;;13.00;97.60;;;;;;4970404;28;20480;-68
2022/03/18 12:52:49;;;;;;;9.88;4.00;;;12.90;97.70;;;;;;4971006;28;20031;-68
2022/03/18 12:55:17;;;;;;;12.88;4.95;;;13.10;97.60;;;;;;4971464;28;20054;-68
2022/03/18 12:57:43;;;;;;;12.82;4.15;;;;;;;;;;4971648;28;20034;-68
2022/03/18 13:00:11;;;;;;;7.35;4.30;;;12.90;97.40;;;;;;4967345;28;20046;-68
2022/03/18 13:02:37;;;;;;;4.40;3.33;;;12.90;97.30;;;;;;4970991;28;20464;-68
2022/03/18 13:05:07;;;;;;;8.25;3.25;;;13.20;97.40;;;;;;4953919;28;20615;-68
2022/03/18 13:07:33;;;;;;;6.47;3.80;;;;;;;;;;4970788;28;20037;-69
2022/03/18 13:09:58;;;;;;;6.60;3.75;;;13.20;97.50;;;;;;4971000;28;20050;-68
2022/03/18 13:12:26;;;;;;;12.75;3.60;;;13.20;90.50;;;;;;4968858;28;20042;-68
2022/03/18 13:14:56;;;;;;;6.90;3.25;;;;;;;;;;4971092;28;20046;-68
2022/03/18 13:17:30;;;;;;;4.75;3.35;;;12.80;97.30;;;;;;4971227;28;20034;-68
2022/03/18 13:19:56;;;;;;;8.38;3.67;;;13.40;97.30;;;;;;4960763;28;20035;-68
2022/03/18 13:22:24;;;;;;;8.43;3.08;;;13.50;97.30;;;;;;4986415;28;20080;-68
2022/03/18 13:24:51;;;;;;;6.97;3.78;;;13.40;96.70;;;;;;5000319;28;20027;-67
2022/03/18 13:27:20;;;;;;;9.60;4.10;;;13.60;96.40;;;;;;4971380;28;20030;-67
2022/03/18 13:32:51;;;;;;;8.68;3.85;;;13.50;96.50;;;;;;4971261;28;20499;-68
2022/03/18 13:35:19;;;;;;;5.45;2.88;;;13.60;96.60;;;;;;4972636;28;20043;-67
2022/03/18 13:38:03;;;;;;;9.98;3.95;;;13.60;94.40;;;;;;4962064;28;20062;-67